Terminal Aerodrome Forecast
Issued by NWS

Home | Current Version | Previous Version | Text Only | Print | Product List | Glossary On
Versions: 1 2 3 4 5 6 7 8 9 10 11 12
000
FTUS45 KRIW 191100
TAFBPI
TAF
KBPI 191134Z 1912/2012 22007KT P6SM BKN080
     FM192100 30010KT P6SM VCSH SCT050 BKN090
     FM200100 36011KT P6SM VCSH BKN070
     FM200300 36007KT P6SM SCT080=

USA.gov is the U.S. government's official web portal to all federal, state and local government web resources and services.